Time;durP1;ratioP1;P1;durP2;ratioP2;P2;SDS_P1;SDS_P2;PMS_P1;PMS_P2;Temp;Humidity;BMP_temperature;BMP_pressure;BME280_temperature;BME280_humidity;BME280_pressure;Samples;Min_cycle;Max_cycle;Signal;HPM_P1;HPM_P2
2021/03/16 00:01:23;;;;;;;6.40;3.70;;;5.60;99.90;;;;;;5068130;28;20450;-60
2021/03/16 00:03:48;;;;;;;4.80;3.57;;;5.70;99.90;;;;;;5070917;28;20205;-59
2021/03/16 00:06:17;;;;;;;7.17;3.13;;;5.60;99.90;;;;;;5079072;28;20196;-60
2021/03/16 00:08:43;;;;;;;4.87;3.10;;;5.60;99.90;;;;;;5085125;28;20178;-60
2021/03/16 00:11:09;;;;;;;7.77;3.30;;;5.60;99.90;;;;;;5073152;28;20895;-60
2021/03/16 00:13:35;;;;;;;3.77;3.13;;;5.70;99.90;;;;;;5082979;28;20511;-59
2021/03/16 00:16:01;;;;;;;3.67;3.37;;;;;;;;;;5074514;28;20207;-60
2021/03/16 00:18:26;;;;;;;4.70;3.50;;;5.60;99.90;;;;;;5072312;28;20695;-59
2021/03/16 00:20:52;;;;;;;5.03;4.10;;;5.60;99.90;;;;;;5070933;28;20536;-60
2021/03/16 00:23:18;;;;;;;4.70;3.50;;;5.70;99.90;;;;;;5071130;28;20211;-59
2021/03/16 00:25:44;;;;;;;4.70;3.80;;;5.70;99.90;;;;;;5077581;28;20439;-59
2021/03/16 00:28:10;;;;;;;5.20;4.27;;;5.70;99.90;;;;;;5077280;28;20313;-60
2021/03/16 00:30:35;;;;;;;4.50;3.70;;;5.70;99.90;;;;;;5085744;28;20937;-60
2021/03/16 00:33:01;;;;;;;4.60;4.13;;;5.70;99.90;;;;;;5073466;28;20192;-59
2021/03/16 00:35:27;;;;;;;6.43;4.00;;;5.30;99.90;;;;;;5070767;28;20625;-60
2021/03/16 00:37:52;;;;;;;6.23;4.47;;;5.50;99.90;;;;;;5074880;28;20532;-59
2021/03/16 00:40:18;;;;;;;5.80;4.20;;;5.50;99.90;;;;;;5072868;28;20655;-59
2021/03/16 00:42:45;;;;;;;5.70;3.70;;;5.50;99.90;;;;;;5072080;28;20195;-59
2021/03/16 00:45:11;;;;;;;5.90;4.10;;;5.60;99.90;;;;;;5085255;28;20195;-59
2021/03/16 00:47:37;;;;;;;5.60;4.60;;;5.70;99.90;;;;;;5079470;28;22289;-59
2021/03/16 00:50:08;;;;;;;4.80;4.03;;;5.70;99.90;;;;;;5083316;28;20457;-59
2021/03/16 00:52:33;;;;;;;4.30;3.97;;;5.70;99.90;;;;;;5075855;28;20990;-60
2021/03/16 00:54:59;;;;;;;5.40;4.00;;;5.70;99.90;;;;;;5078397;28;20527;-59
2021/03/16 00:57:25;;;;;;;5.93;4.37;;;5.80;99.90;;;;;;5082835;28;20178;-60
2021/03/16 00:59:50;;;;;;;6.10;4.80;;;5.80;99.90;;;;;;5070163;28;20175;-60
2021/03/16 01:02:18;;;;;;;3.57;3.27;;;5.80;99.90;;;;;;5070887;28;20198;-60
2021/03/16 01:04:44;;;;;;;6.73;4.60;;;5.90;99.90;;;;;;5069837;28;20274;-59
2021/03/16 01:07:10;;;;;;;7.33;5.70;;;5.70;99.90;;;;;;5071230;28;20990;-59
2021/03/16 01:09:36;;;;;;;5.93;5.00;;;8.20;99.90;;;;;;5061342;28;20440;-60
2021/03/16 01:12:02;;;;;;;7.37;4.80;;;5.60;99.90;;;;;;5075606;28;20210;-60
2021/03/16 01:14:28;;;;;;;6.37;4.50;;;5.60;99.90;;;;;;5068978;28;20189;-60
2021/03/16 01:16:53;;;;;;;8.90;5.40;;;5.60;99.90;;;;;;5082571;28;20446;-60
2021/03/16 01:19:19;;;;;;;4.60;4.13;;;;;;;;;;5073354;28;20185;-59
2021/03/16 01:21:45;;;;;;;6.87;4.93;;;5.70;99.90;;;;;;5076172;28;20210;-60
2021/03/16 01:24:10;;;;;;;9.70;5.63;;;5.70;99.90;;;;;;5070865;28;20494;-60
2021/03/16 01:26:36;;;;;;;5.00;4.13;;;5.70;99.90;;;;;;5071379;28;20183;-59
2021/03/16 01:29:04;;;;;;;5.30;4.77;;;5.70;99.90;;;;;;5074415;28;20187;-60
2021/03/16 01:31:31;;;;;;;4.93;4.17;;;5.70;99.90;;;;;;5068079;28;20249;-60
2021/03/16 01:33:57;;;;;;;7.90;4.90;;;5.70;99.90;;;;;;5081514;28;20437;-60
2021/03/16 01:36:22;;;;;;;7.80;5.57;;;5.70;99.90;;;;;;5073678;28;20475;-60
2021/03/16 01:38:48;;;;;;;11.80;6.17;;;5.70;99.90;;;;;;5085029;28;20316;-60
2021/03/16 01:41:14;;;;;;;6.00;5.00;;;5.80;99.90;;;;;;5088262;28;20179;-59
2021/03/16 01:43:39;;;;;;;8.80;5.30;;;5.90;99.90;;;;;;5074925;28;20277;-60
2021/03/16 01:46:06;;;;;;;7.10;6.00;;;5.80;99.90;;;;;;5079292;28;20199;-60
2021/03/16 01:48:34;;;;;;;6.20;4.90;;;5.70;99.90;;;;;;5083348;28;20190;-60
2021/03/16 01:51:06;;;;;;;7.57;5.17;;;5.80;99.90;;;;;;5072198;28;20468;-60
2021/03/16 01:53:32;;;;;;;6.50;5.80;;;5.70;99.90;;;;;;5069981;28;20438;-60
2021/03/16 01:56:00;;;;;;;8.37;5.37;;;5.70;99.90;;;;;;5076854;28;20426;-59
2021/03/16 01:58:25;;;;;;;7.40;5.90;;;5.70;99.90;;;;;;5082149;28;20583;-60
2021/03/16 02:00:51;;;;;;;6.50;5.53;;;5.70;99.90;;;;;;5084268;28;20574;-60
2021/03/16 02:03:18;;;;;;;12.13;5.90;;;5.60;99.90;;;;;;5061616;28;20190;-59
2021/03/16 02:05:44;;;;;;;6.20;5.43;;;5.70;99.90;;;;;;5084750;28;20186;-59
2021/03/16 02:08:16;;;;;;;10.40;6.67;;;5.70;99.90;;;;;;5082729;28;20445;-60
2021/03/16 02:11:06;;;;;;;10.43;5.70;;;5.80;99.90;;;;;;5076190;28;20465;-60
2021/03/16 02:14:17;;;;;;;8.37;6.00;;;5.70;99.90;;;;;;5077885;28;20437;-60
2021/03/16 02:17:07;;;;;;;6.40;5.60;;;5.80;99.90;;;;;;5016469;28;20530;-60
2021/03/16 02:19:56;;;;;;;6.43;5.83;;;5.80;99.90;;;;;;5062469;28;20779;-59
2021/03/16 02:22:25;;;;;;;6.70;5.20;;;5.70;99.90;;;;;;5078193;28;20453;-60
2021/03/16 02:25:07;;;;;;;7.77;6.20;;;5.70;99.90;;;;;;5071134;28;20488;-59
2021/03/16 02:27:48;;;;;;;11.60;6.00;;;5.70;99.90;;;;;;5078549;28;20448;-60
2021/03/16 02:30:15;;;;;;;7.33;4.80;;;5.70;99.90;;;;;;5073443;28;20456;-59
2021/03/16 02:32:44;;;;;;;6.90;5.23;;;5.70;99.90;;;;;;5068410;28;20449;-60
2021/03/16 02:35:11;;;;;;;6.37;5.30;;;5.70;99.90;;;;;;5082669;28;20790;-60
2021/03/16 02:37:40;;;;;;;6.20;5.00;;;5.70;99.90;;;;;;5076454;28;20484;-60
2021/03/16 02:40:08;;;;;;;11.20;5.10;;;5.70;99.90;;;;;;5075117;28;20761;-60
2021/03/16 02:42:34;;;;;;;5.37;4.87;;;5.70;99.90;;;;;;5090029;28;21242;-60
2021/03/16 02:45:05;;;;;;;5.07;4.57;;;5.70;99.90;;;;;;5081740;28;20915;-60
2021/03/16 02:47:30;;;;;;;7.53;5.57;;;5.70;99.90;;;;;;5073151;28;20516;-60
2021/03/16 02:49:56;;;;;;;5.20;4.60;;;5.70;99.90;;;;;;5079308;28;20593;-59
2021/03/16 02:52:23;;;;;;;5.03;4.53;;;5.80;99.90;;;;;;5074073;28;20590;-59
2021/03/16 02:54:51;;;;;;;7.80;5.20;;;5.80;99.90;;;;;;5073144;28;20476;-60
2021/03/16 02:57:17;;;;;;;4.90;4.40;;;5.80;99.90;;;;;;5075448;28;20768;-60
2021/03/16 02:59:45;;;;;;;7.27;4.70;;;5.80;99.90;;;;;;5073870;28;20800;-60
2021/03/16 03:02:12;;;;;;;5.47;4.23;;;5.80;99.90;;;;;;5077965;28;20449;-60
2021/03/16 03:04:40;;;;;;;5.00;4.50;;;5.80;99.90;;;;;;5075026;28;20468;-60
2021/03/16 03:07:09;;;;;;;3.90;3.60;;;5.60;99.90;;;;;;5084723;28;20453;-60
2021/03/16 03:09:36;;;;;;;5.27;3.93;;;5.30;99.90;;;;;;5073371;28;20446;-59
2021/03/16 03:12:05;;;;;;;5.03;4.43;;;5.40;99.90;;;;;;5077466;28;20486;-60
2021/03/16 03:14:37;;;;;;;5.17;4.33;;;5.30;99.90;;;;;;5087347;28;20440;-59
2021/03/16 03:17:06;;;;;;;8.57;5.37;;;5.40;99.90;;;;;;5084493;28;20451;-60
2021/03/16 03:19:33;;;;;;;7.23;5.33;;;5.40;99.90;;;;;;5079181;28;20444;-59
2021/03/16 03:22:08;;;;;;;7.27;5.50;;;5.50;99.90;;;;;;5079432;28;20447;-59
2021/03/16 03:24:40;;;;;;;6.53;4.50;;;5.50;99.90;;;;;;5079455;28;20480;-59
2021/03/16 03:27:21;;;;;;;6.73;5.67;;;5.40;99.90;;;;;;5077442;28;20449;-59
2021/03/16 03:29:48;;;;;;;6.70;5.50;;;5.40;99.90;;;;;;5076564;28;20437;-59
2021/03/16 03:32:16;;;;;;;9.00;5.77;;;5.40;99.90;;;;;;5073292;28;20499;-60
2021/03/16 03:34:45;;;;;;;8.33;5.17;;;5.40;99.90;;;;;;5072041;28;20445;-60
2021/03/16 03:37:12;;;;;;;9.10;6.23;;;5.50;99.90;;;;;;5089629;28;20432;-60
2021/03/16 03:39:38;;;;;;;6.90;6.13;;;5.50;99.90;;;;;;5086022;28;20444;-59
2021/03/16 03:42:06;;;;;;;8.60;5.93;;;5.50;99.90;;;;;;5077969;28;20445;-59
2021/03/16 03:44:33;;;;;;;5.80;5.20;;;5.40;99.90;;;;;;5073354;28;20441;-59
2021/03/16 03:47:01;;;;;;;7.20;6.00;;;5.40;99.90;;;;;;5083397;28;20441;-59
2021/03/16 03:49:28;;;;;;;7.50;6.13;;;5.30;99.90;;;;;;5088169;28;20444;-59
2021/03/16 03:51:55;;;;;;;9.30;6.17;;;5.30;99.90;;;;;;5076523;28;20497;-59
2021/03/16 03:54:22;;;;;;;9.13;6.70;;;5.30;99.90;;;;;;5074458;28;20472;-59
2021/03/16 03:56:49;;;;;;;7.00;5.53;;;5.10;99.90;;;;;;5080310;28;20918;-59
2021/03/16 03:59:15;;;;;;;6.50;5.90;;;5.10;99.90;;;;;;5090045;28;20511;-60
2021/03/16 04:01:42;;;;;;;8.97;5.50;;;5.10;99.90;;;;;;5068826;28;20491;-60
2021/03/16 04:04:08;;;;;;;6.63;5.57;;;5.00;99.90;;;;;;5081214;28;20444;-60
2021/03/16 04:06:35;;;;;;;7.00;5.10;;;5.00;99.90;;;;;;5083142;28;20522;-60
2021/03/16 04:09:03;;;;;;;6.03;5.27;;;4.90;99.90;;;;;;5087604;28;20456;-59
2021/03/16 04:11:28;;;;;;;7.10;5.67;;;4.90;99.90;;;;;;5071416;28;20484;-59
2021/03/16 04:13:55;;;;;;;8.37;6.07;;;5.00;99.90;;;;;;5072445;28;20776;-60
2021/03/16 04:16:21;;;;;;;8.50;6.40;;;5.00;99.90;;;;;;5062592;28;20468;-60
2021/03/16 04:18:48;;;;;;;7.03;6.00;;;5.00;99.90;;;;;;5072713;28;20457;-59
2021/03/16 04:21:15;;;;;;;7.60;6.00;;;4.90;99.90;;;;;;5072696;28;20517;-59
2021/03/16 04:23:42;;;;;;;7.27;6.43;;;4.90;99.90;;;;;;5070288;28;20469;-59
2021/03/16 04:26:07;;;;;;;8.47;6.77;;;4.90;99.90;;;;;;5072227;28;20440;-59
2021/03/16 04:28:33;;;;;;;10.43;5.83;;;4.90;99.90;;;;;;5061916;28;20512;-60
2021/03/16 04:30:59;;;;;;;6.63;5.37;;;5.10;99.90;;;;;;5072431;28;20248;-59
2021/03/16 04:33:24;;;;;;;8.73;6.30;;;5.10;99.90;;;;;;5071069;28;20652;-60
2021/03/16 04:35:50;;;;;;;5.93;5.27;;;;;;;;;;5080915;28;20253;-59
2021/03/16 04:38:16;;;;;;;8.20;4.80;;;8.40;99.90;;;;;;5074993;28;20181;-60
2021/03/16 04:40:43;;;;;;;5.77;5.00;;;5.00;99.90;;;;;;5071682;28;20791;-60
2021/03/16 04:43:09;;;;;;;10.70;5.43;;;5.00;99.90;;;;;;5084264;28;20279;-60
2021/03/16 04:45:36;;;;;;;4.83;4.13;;;5.10;99.90;;;;;;5081422;28;20515;-60
2021/03/16 04:48:03;;;;;;;7.17;4.90;;;5.10;99.90;;;;;;5077466;28;20452;-59
2021/03/16 04:50:28;;;;;;;6.43;4.10;;;5.10;99.90;;;;;;5076270;28;20460;-59
2021/03/16 04:52:54;;;;;;;6.87;3.73;;;5.10;99.90;;;;;;5079118;28;20875;-59
2021/03/16 04:55:20;;;;;;;3.83;3.33;;;5.00;99.90;;;;;;5077036;28;20182;-59
2021/03/16 04:57:46;;;;;;;8.57;4.20;;;5.10;99.90;;;;;;5074524;28;20176;-60
2021/03/16 05:00:13;;;;;;;4.47;4.07;;;5.10;99.90;;;;;;5087134;28;20490;-59
2021/03/16 05:02:39;;;;;;;5.40;3.83;;;5.10;99.90;;;;;;5083107;28;20440;-59
2021/03/16 05:05:06;;;;;;;5.30;3.80;;;5.10;99.90;;;;;;5067405;28;20457;-60
2021/03/16 05:07:32;;;;;;;4.03;3.73;;;5.00;99.90;;;;;;5075573;28;20541;-59
2021/03/16 05:09:58;;;;;;;3.20;2.90;;;5.10;99.90;;;;;;5081011;28;20444;-60
2021/03/16 05:12:24;;;;;;;5.40;3.27;;;5.10;99.90;;;;;;5083867;28;20437;-59
2021/03/16 05:14:50;;;;;;;3.40;2.40;;;5.10;99.90;;;;;;5074206;28;20448;-59
2021/03/16 05:17:15;;;;;;;4.30;2.70;;;5.10;99.90;;;;;;5067919;28;20680;-59
2021/03/16 05:19:41;;;;;;;3.57;2.73;;;5.20;99.90;;;;;;5067913;28;20183;-59
2021/03/16 05:22:07;;;;;;;3.43;3.13;;;5.20;99.90;;;;;;5074550;28;20646;-59
2021/03/16 05:24:32;;;;;;;2.60;2.40;;;5.10;99.90;;;;;;5075815;28;20246;-59
2021/03/16 05:26:58;;;;;;;2.60;2.40;;;2.40;99.90;;;;;;5073650;28;20519;-59
2021/03/16 05:29:24;;;;;;;4.13;2.80;;;5.30;99.90;;;;;;5071827;28;20209;-60
2021/03/16 05:31:49;;;;;;;3.73;2.40;;;5.30;99.90;;;;;;5078373;28;20220;-59
2021/03/16 05:34:15;;;;;;;3.73;2.70;;;5.30;99.90;;;;;;5083439;28;20281;-59
2021/03/16 05:36:41;;;;;;;5.03;2.40;;;5.30;99.90;;;;;;5081560;28;20208;-59
2021/03/16 05:39:07;;;;;;;3.87;2.37;;;5.30;99.90;;;;;;5082712;28;20201;-59
2021/03/16 05:41:35;;;;;;;3.00;2.33;;;5.30;99.90;;;;;;5078270;28;20437;-59
2021/03/16 05:44:01;;;;;;;2.63;2.07;;;5.80;99.90;;;;;;5070708;28;20564;-59
2021/03/16 05:46:27;;;;;;;2.43;2.23;;;;;;;;;;5068445;28;20489;-59
2021/03/16 05:48:55;;;;;;;3.73;2.67;;;5.30;99.90;;;;;;5065933;28;20955;-59
2021/03/16 05:51:21;;;;;;;4.60;2.80;;;5.30;99.90;;;;;;5072436;28;20594;-59
2021/03/16 05:53:49;;;;;;;3.50;2.67;;;5.50;99.90;;;;;;5077884;28;20445;-59
2021/03/16 05:56:15;;;;;;;2.73;2.30;;;5.50;99.90;;;;;;5075534;28;20441;-59
2021/03/16 05:58:41;;;;;;;3.70;2.70;;;5.40;99.90;;;;;;5091047;28;20830;-59
2021/03/16 06:01:07;;;;;;;2.67;2.30;;;;;;;;;;5088755;28;20497;-59
2021/03/16 06:03:33;;;;;;;4.00;2.60;;;5.40;99.90;;;;;;5070001;28;20506;-61
2021/03/16 06:05:59;;;;;;;2.10;2.00;;;5.40;99.90;;;;;;5073069;28;20437;-63
2021/03/16 06:08:24;;;;;;;2.87;2.10;;;5.40;99.90;;;;;;5083791;28;20897;-62
2021/03/16 06:10:51;;;;;;;4.90;2.43;;;;;;;;;;5072970;28;20203;-62
2021/03/16 06:13:16;;;;;;;3.20;1.70;;;5.40;99.90;;;;;;5072321;28;20179;-63
2021/03/16 06:15:42;;;;;;;1.90;1.70;;;5.50;99.90;;;;;;5077481;28;20443;-62
2021/03/16 06:18:22;;;;;;;2.00;1.50;;;5.30;99.90;;;;;;5069779;28;20636;-62
2021/03/16 06:20:57;;;;;;;3.47;1.70;;;5.30;99.90;;;;;;5062613;28;20477;-62
2021/03/16 06:23:32;;;;;;;8.90;2.03;;;5.30;99.90;;;;;;5074461;28;20818;-62
2021/03/16 06:25:58;;;;;;;1.17;1.07;;;5.30;99.90;;;;;;5071177;28;20437;-62
2021/03/16 06:28:35;;;;;;;1.60;1.50;;;5.40;99.90;;;;;;5080170;28;20457;-62
2021/03/16 06:31:01;;;;;;;2.93;1.33;;;5.40;99.90;;;;;;5077785;28;20464;-62
2021/03/16 06:33:32;;;;;;;4.40;1.87;;;5.30;99.90;;;;;;5082907;28;20488;-62
2021/03/16 06:36:07;;;;;;;1.33;1.23;;;5.40;99.90;;;;;;5065063;28;20459;-62
2021/03/16 06:38:33;;;;;;;1.57;1.47;;;5.50;99.90;;;;;;5072007;28;20451;-62
2021/03/16 06:41:16;;;;;;;2.37;1.43;;;5.50;99.90;;;;;;5084758;28;20468;-62
2021/03/16 06:43:51;;;;;;;2.23;1.30;;;5.60;99.90;;;;;;5077124;28;20451;-63
2021/03/16 06:46:36;;;;;;;1.47;1.27;;;5.70;99.90;;;;;;5077870;28;20445;-62
2021/03/16 06:49:12;;;;;;;2.17;1.60;;;5.70;99.90;;;;;;5069058;28;20785;-62
2021/03/16 06:51:38;;;;;;;1.60;1.50;;;5.70;99.90;;;;;;5079246;28;20537;-63
2021/03/16 06:54:11;;;;;;;2.90;1.10;;;5.70;97.70;;;;;;5073469;28;20532;-63
2021/03/16 06:56:37;;;;;;;2.23;1.30;;;5.70;79.80;;;;;;5088855;28;20193;-62
2021/03/16 06:59:05;;;;;;;1.67;1.30;;;5.70;75.20;;;;;;5074325;28;20441;-62
2021/03/16 07:01:32;;;;;;;1.70;1.60;;;5.70;68.30;;;;;;5076232;28;21011;-62
2021/03/16 07:04:17;;;;;;;2.50;1.37;;;5.70;69.50;;;;;;5078682;28;20440;-62
2021/03/16 07:06:43;;;;;;;1.23;1.13;;;5.70;58.20;;;;;;5075509;28;20463;-62
2021/03/16 07:09:12;;;;;;;5.60;2.13;;;5.70;60.00;;;;;;5073118;28;20764;-62
2021/03/16 07:11:40;;;;;;;5.33;1.90;;;5.70;63.90;;;;;;5067983;28;20472;-61
2021/03/16 07:14:06;;;;;;;3.50;1.60;;;5.60;77.40;;;;;;5073920;28;20952;-62
2021/03/16 07:16:33;;;;;;;2.90;2.17;;;5.60;78.70;;;;;;5085834;28;20440;-62
2021/03/16 07:19:03;;;;;;;4.03;2.20;;;5.50;91.30;;;;;;5079543;28;20449;-63
2021/03/16 07:21:40;;;;;;;2.33;1.90;;;5.50;99.90;;;;;;5082541;28;20941;-62
2021/03/16 07:24:09;;;;;;;2.87;2.03;;;5.50;99.90;;;;;;5077983;28;20491;-63
2021/03/16 07:26:35;;;;;;;2.83;2.50;;;5.60;99.90;;;;;;5086368;28;20453;-63
2021/03/16 07:29:04;;;;;;;2.70;2.03;;;5.60;99.90;;;;;;5088129;28;20915;-62
2021/03/16 07:31:38;;;;;;;3.27;2.43;;;5.70;99.90;;;;;;5075878;28;20480;-63
2021/03/16 07:34:06;;;;;;;2.60;2.40;;;5.60;99.90;;;;;;5080214;28;20491;-62
2021/03/16 07:36:33;;;;;;;10.80;3.10;;;5.60;99.90;;;;;;5082665;28;20440;-63
2021/03/16 07:39:00;;;;;;;5.20;3.20;;;5.80;99.90;;;;;;5079190;28;20488;-63
2021/03/16 07:41:27;;;;;;;5.33;3.23;;;5.70;99.90;;;;;;5087143;28;20812;-63
2021/03/16 07:44:05;;;;;;;3.33;3.03;;;5.60;99.90;;;;;;5085687;28;20456;-63
2021/03/16 07:46:47;;;;;;;6.97;3.90;;;5.60;99.90;;;;;;5083436;28;20429;-62
2021/03/16 07:49:27;;;;;;;6.93;4.20;;;5.40;99.90;;;;;;5072498;28;20475;-63
2021/03/16 07:51:53;;;;;;;6.07;4.17;;;5.40;99.90;;;;;;5069430;28;20471;-63
2021/03/16 07:54:21;;;;;;;8.93;4.77;;;;;;;;;;5072173;28;20535;-63
2021/03/16 07:56:57;;;;;;;9.37;4.57;;;5.40;99.90;;;;;;5077094;28;20575;-63
2021/03/16 07:59:30;;;;;;;11.50;5.83;;;5.40;99.90;;;;;;5077655;28;20968;-63
2021/03/16 08:01:56;;;;;;;9.17;5.23;;;5.40;99.90;;;;;;5074075;28;20536;-64
2021/03/16 08:04:41;;;;;;;11.27;5.77;;;5.30;99.90;;;;;;5081718;28;20871;-61
2021/03/16 08:07:12;;;;;;;8.20;6.30;;;5.40;99.90;;;;;;5071544;28;20201;-65
2021/03/16 08:09:46;;;;;;;11.23;6.17;;;5.40;99.90;;;;;;5076660;28;20447;-64
2021/03/16 08:12:27;;;;;;;9.70;5.70;;;5.20;99.90;;;;;;5086643;28;20457;-63
2021/03/16 08:14:53;;;;;;;8.10;5.20;;;5.10;99.90;;;;;;5078175;28;20946;-63
2021/03/16 08:17:27;;;;;;;6.50;5.40;;;5.20;99.90;;;;;;5082306;28;20433;-64
2021/03/16 08:19:52;;;;;;;5.67;4.37;;;5.30;99.90;;;;;;5078704;28;20544;-64
2021/03/16 08:22:21;;;;;;;5.37;4.03;;;5.20;99.90;;;;;;5081058;28;20963;-64
2021/03/16 08:24:46;;;;;;;4.60;4.20;;;5.20;99.90;;;;;;5079279;28;20274;-65
2021/03/16 08:27:14;;;;;;;4.17;3.77;;;5.30;99.90;;;;;;5077024;28;20897;-64
2021/03/16 08:29:44;;;;;;;7.30;4.60;;;5.40;99.90;;;;;;5085257;28;20194;-62
2021/03/16 08:32:20;;;;;;;6.00;4.50;;;5.40;99.90;;;;;;5082533;28;20809;-63
2021/03/16 08:34:47;;;;;;;5.57;4.00;;;5.50;99.90;;;;;;5073670;28;20933;-64
2021/03/16 08:37:27;;;;;;;8.80;4.10;;;5.70;99.90;;;;;;5082387;28;20809;-64
2021/03/16 08:39:56;;;;;;;5.67;3.80;;;5.70;99.90;;;;;;5079324;28;20808;-63
2021/03/16 08:42:24;;;;;;;4.87;3.57;;;5.70;99.90;;;;;;5070654;28;20543;-64
2021/03/16 08:44:51;;;;;;;8.17;3.80;;;5.70;99.90;;;;;;5079477;28;20442;-63
2021/03/16 08:47:19;;;;;;;14.83;4.20;;;5.80;99.90;;;;;;5077673;28;20445;-61
2021/03/16 08:49:47;;;;;;;4.43;3.57;;;5.80;99.90;;;;;;5077439;28;20468;-63
2021/03/16 08:52:18;;;;;;;8.50;4.17;;;5.90;99.90;;;;;;5078795;28;20499;-63
2021/03/16 08:54:44;;;;;;;3.10;2.90;;;5.80;99.90;;;;;;5077411;28;20437;-64
2021/03/16 08:57:15;;;;;;;6.83;3.73;;;5.70;99.90;;;;;;5070494;28;20444;-64
2021/03/16 08:59:56;;;;;;;4.27;3.50;;;5.60;99.90;;;;;;5077430;28;21035;-64
2021/03/16 09:02:24;;;;;;;4.30;3.40;;;5.50;99.90;;;;;;5078920;28;20969;-65
2021/03/16 09:04:50;;;;;;;7.03;4.30;;;5.60;99.90;;;;;;5082269;28;20477;-64
2021/03/16 09:07:24;;;;;;;5.57;3.07;;;5.60;99.90;;;;;;5080375;28;20977;-65
2021/03/16 09:09:51;;;;;;;4.20;3.80;;;5.70;99.90;;;;;;5082461;28;20444;-63
2021/03/16 09:12:30;;;;;;;3.50;3.20;;;6.00;99.90;;;;;;5076753;28;20768;-64
2021/03/16 09:15:26;;;;;;;4.37;3.70;;;6.10;99.90;;;;;;5076477;28;20441;-65
2021/03/16 09:17:54;;;;;;;6.40;3.77;;;6.20;96.10;;;;;;5067891;28;20537;-64
2021/03/16 09:20:25;;;;;;;4.70;3.13;;;6.20;95.40;;;;;;5077741;28;20437;-64
2021/03/16 09:22:56;;;;;;;3.73;3.37;;;6.20;79.10;;;;;;5088511;28;20461;-65
2021/03/16 09:25:42;;;;;;;6.70;4.13;;;6.20;63.00;;;;;;5083766;28;20434;-64
2021/03/16 09:28:10;;;;;;;9.27;4.40;;;6.30;60.80;;;;;;5082426;28;20437;-64
2021/03/16 09:30:45;;;;;;;6.60;3.87;;;6.30;62.00;;;;;;5076599;28;20519;-64
2021/03/16 09:33:16;;;;;;;6.47;4.60;;;6.40;53.60;;;;;;5069123;28;20425;-64
2021/03/16 09:35:42;;;;;;;4.47;3.20;;;6.40;44.60;;;;;;5086791;28;20429;-64
2021/03/16 09:38:08;;;;;;;11.77;3.70;;;6.40;48.60;;;;;;5071156;28;20434;-64
2021/03/16 09:40:42;;;;;;;6.47;3.27;;;6.50;28.70;;;;;;5078827;28;20645;-64
2021/03/16 09:43:17;;;;;;;4.47;2.60;;;6.70;8.90;;;;;;5082376;28;20519;-64
2021/03/16 09:45:55;;;;;;;7.63;3.10;;;6.50;1.00;;;;;;5081951;28;20433;-64
2021/03/16 09:48:21;;;;;;;6.33;3.10;;;6.70;1.00;;;;;;5077507;28;20448;-64
2021/03/16 09:50:48;;;;;;;10.00;3.30;;;7.00;1.00;;;;;;5072859;28;20460;-64
2021/03/16 09:53:15;;;;;;;5.33;3.10;;;7.00;1.00;;;;;;5072853;28;20447;-65
2021/03/16 09:55:42;;;;;;;6.53;3.30;;;6.90;1.00;;;;;;5076448;28;20970;-64
2021/03/16 09:58:19;;;;;;;4.37;2.97;;;6.80;1.00;;;;;;5074071;28;20475;-64
2021/03/16 10:00:49;;;;;;;6.10;3.60;;;6.90;1.00;;;;;;5080443;28;20936;-64
2021/03/16 10:03:17;;;;;;;3.40;3.00;;;7.10;1.00;;;;;;5072432;28;20437;-63
2021/03/16 10:05:42;;;;;;;8.90;2.93;;;7.10;1.00;;;;;;5071973;28;20452;-65
2021/03/16 10:08:08;;;;;;;6.23;3.73;;;7.30;1.00;;;;;;5074896;28;20433;-64
2021/03/16 10:10:39;;;;;;;6.40;3.23;;;7.30;1.00;;;;;;5070807;28;20457;-64
2021/03/16 10:13:07;;;;;;;3.33;3.03;;;7.20;1.00;;;;;;5073311;28;20190;-65
2021/03/16 10:15:38;;;;;;;6.57;3.30;;;7.20;1.00;;;;;;5071169;28;20470;-66
2021/03/16 10:18:12;;;;;;;3.73;2.57;;;7.50;1.00;;;;;;5074399;28;20430;-64
2021/03/16 10:20:40;;;;;;;8.00;3.20;;;7.40;1.00;;;;;;5075236;28;20433;-64
2021/03/16 10:23:26;;;;;;;4.50;2.20;;;7.60;1.00;;;;;;5089310;28;20483;-63
2021/03/16 10:25:56;;;;;;;3.33;2.23;;;7.40;1.00;;;;;;5078159;28;20540;-67
2021/03/16 10:28:39;;;;;;;6.00;2.80;;;7.40;1.00;;;;;;5071699;28;20957;-61
2021/03/16 10:31:13;;;;;;;2.50;2.27;;;7.40;1.00;;;;;;5069323;28;20480;-60
2021/03/16 10:33:39;;;;;;;2.87;2.20;;;7.50;1.00;;;;;;5078415;28;20437;-60
2021/03/16 10:36:06;;;;;;;5.10;2.37;;;7.60;1.00;;;;;;5088786;28;20499;-61
2021/03/16 10:38:32;;;;;;;3.50;2.20;;;7.60;1.00;;;;;;5068766;28;20445;-61
2021/03/16 10:40:58;;;;;;;4.43;2.30;;;7.60;1.00;;;;;;5077403;28;20433;-60
2021/03/16 10:43:24;;;;;;;2.40;2.20;;;7.70;1.00;;;;;;5073735;28;20508;-61
2021/03/16 10:45:50;;;;;;;3.10;2.27;;;;;;;;;;5086019;28;20198;-61
2021/03/16 10:48:16;;;;;;;3.37;2.50;;;8.20;1.00;;;;;;5070742;28;20270;-61
2021/03/16 10:50:41;;;;;;;3.97;2.00;;;8.10;1.00;;;;;;5072020;28;21056;-60
2021/03/16 10:53:07;;;;;;;4.67;2.70;;;8.10;1.00;;;;;;5070529;28;20438;-61
2021/03/16 10:55:33;;;;;;;2.33;2.00;;;8.10;1.00;;;;;;5077455;28;20191;-61
2021/03/16 10:57:58;;;;;;;3.67;2.70;;;8.20;1.00;;;;;;5083177;28;20203;-61
2021/03/16 11:00:24;;;;;;;2.87;2.40;;;8.20;1.00;;;;;;5089468;28;20765;-60
2021/03/16 11:02:50;;;;;;;3.10;2.30;;;7.80;1.00;;;;;;5089262;28;20183;-61
2021/03/16 11:05:15;;;;;;;4.20;2.50;;;7.50;1.00;;;;;;5073751;28;20186;-60
2021/03/16 11:07:41;;;;;;;3.30;2.50;;;7.50;1.00;;;;;;5080193;28;20178;-61
2021/03/16 11:10:07;;;;;;;2.50;2.23;;;7.70;1.00;;;;;;5084164;28;20614;-60
2021/03/16 11:12:33;;;;;;;4.97;2.50;;;7.70;1.00;;;;;;5073302;28;20619;-61
2021/03/16 11:14:58;;;;;;;5.70;3.10;;;7.90;1.00;;;;;;5073928;28;20445;-61
2021/03/16 11:17:24;;;;;;;3.70;2.57;;;8.20;1.00;;;;;;5087792;28;20183;-61
2021/03/16 11:19:51;;;;;;;4.87;2.73;;;8.20;1.00;;;;;;5093664;28;20190;-61
2021/03/16 11:22:17;;;;;;;3.97;2.47;;;8.00;1.00;;;;;;5094325;28;20185;-61
2021/03/16 11:24:42;;;;;;;4.97;2.43;;;7.80;1.00;;;;;;5075403;28;20965;-61
2021/03/16 11:27:08;;;;;;;6.03;3.33;;;7.60;1.00;;;;;;5079696;28;20229;-61
2021/03/16 11:29:33;;;;;;;3.40;2.23;;;7.70;1.00;;;;;;5074016;28;20175;-61
2021/03/16 11:31:59;;;;;;;2.70;2.20;;;7.90;1.00;;;;;;5081982;28;20204;-60
2021/03/16 11:34:30;;;;;;;6.30;4.13;;;8.00;1.00;;;;;;5073682;28;20263;-61
2021/03/16 11:36:56;;;;;;;8.67;5.73;;;8.00;1.00;;;;;;5073377;28;20180;-61
2021/03/16 11:39:21;;;;;;;10.53;6.10;;;7.90;1.00;;;;;;5090626;28;20436;-60
2021/03/16 11:41:47;;;;;;;6.13;3.67;;;7.70;1.00;;;;;;5076843;28;20489;-61
2021/03/16 11:44:12;;;;;;;4.50;3.00;;;7.80;1.00;;;;;;5085144;28;20181;-61
2021/03/16 11:46:38;;;;;;;6.53;2.90;;;7.80;1.00;;;;;;5075108;28;20291;-61
2021/03/16 11:49:04;;;;;;;5.00;3.50;;;7.60;1.00;;;;;;5075805;28;20241;-60
2021/03/16 11:51:29;;;;;;;4.20;2.63;;;7.70;1.00;;;;;;5075699;28;20687;-61
2021/03/16 11:53:55;;;;;;;4.83;3.47;;;7.60;1.00;;;;;;5073628;28;20179;-61
2021/03/16 11:56:20;;;;;;;3.53;2.47;;;7.70;1.00;;;;;;5081712;28;20183;-60
2021/03/16 11:58:46;;;;;;;5.20;3.43;;;7.70;1.00;;;;;;5075507;28;20187;-61
2021/03/16 12:01:11;;;;;;;3.37;2.73;;;7.80;1.00;;;;;;5081838;28;20194;-61
2021/03/16 12:03:37;;;;;;;5.33;2.60;;;8.00;1.00;;;;;;5086712;28;20190;-61
2021/03/16 12:06:03;;;;;;;3.07;2.70;;;8.00;1.00;;;;;;5093052;28;20190;-61
2021/03/16 12:08:28;;;;;;;5.50;2.97;;;8.00;1.00;;;;;;5081230;28;20191;-61
2021/03/16 12:10:54;;;;;;;5.50;2.80;;;8.30;1.00;;;;;;5080230;28;20198;-61
2021/03/16 12:13:20;;;;;;;5.40;2.87;;;8.40;1.00;;;;;;5081442;28;20207;-61
2021/03/16 12:15:45;;;;;;;5.50;2.70;;;8.40;1.00;;;;;;5087491;28;20597;-60
2021/03/16 12:18:11;;;;;;;2.87;2.60;;;8.50;1.00;;;;;;5077069;28;20184;-61
2021/03/16 12:20:37;;;;;;;4.37;2.13;;;8.40;1.00;;;;;;5088261;28;20310;-61
2021/03/16 12:23:03;;;;;;;4.00;2.17;;;8.50;1.00;;;;;;5089152;28;20186;-61
2021/03/16 12:25:29;;;;;;;3.57;2.07;;;8.80;1.00;;;;;;5091655;28;20187;-61
2021/03/16 12:27:55;;;;;;;3.17;2.10;;;;;;;;;;5093224;28;20437;-60
2021/03/16 12:30:21;;;;;;;3.03;2.20;;;8.70;1.00;;;;;;5073700;28;20525;-61
2021/03/16 12:32:50;;;;;;;3.30;2.30;;;;;;;;;;5072974;28;20853;-61
2021/03/16 12:35:15;;;;;;;5.10;2.30;;;8.50;1.00;;;;;;5073181;28;20430;-61
2021/03/16 12:37:42;;;;;;;2.90;2.57;;;8.40;1.00;;;;;;5079201;28;20456;-61
2021/03/16 12:40:08;;;;;;;3.30;3.00;;;8.30;1.00;;;;;;5071396;28;20779;-61
2021/03/16 12:42:35;;;;;;;6.37;2.87;;;8.30;1.00;;;;;;5079801;28;20446;-61
2021/03/16 12:45:02;;;;;;;7.57;3.43;;;8.00;1.00;;;;;;5084272;28;20485;-61
2021/03/16 12:47:28;;;;;;;3.13;2.80;;;7.90;1.00;;;;;;5092326;28;20437;-61
2021/03/16 12:49:54;;;;;;;6.40;3.80;;;7.90;1.00;;;;;;5083463;28;20449;-60
2021/03/16 12:52:20;;;;;;;4.50;3.77;;;7.90;1.00;;;;;;5076944;28;20224;-61
2021/03/16 12:54:46;;;;;;;6.03;3.70;;;7.90;1.00;;;;;;5087234;28;20429;-61
2021/03/16 12:57:13;;;;;;;5.97;3.80;;;7.90;1.00;;;;;;5092651;28;20616;-61
2021/03/16 12:59:39;;;;;;;5.67;3.63;;;7.90;1.00;;;;;;5082071;28;20930;-61
2021/03/16 13:02:04;;;;;;;7.37;3.80;;;7.80;1.00;;;;;;5071285;28;20461;-61
2021/03/16 13:04:30;;;;;;;5.70;3.80;;;7.80;1.00;;;;;;5072089;28;20207;-61
2021/03/16 13:06:56;;;;;;;5.40;3.37;;;7.70;1.00;;;;;;5072685;28;20202;-61
2021/03/16 13:09:22;;;;;;;6.23;4.33;;;8.10;1.00;;;;;;5077079;28;20899;-61